Time;durP1;ratioP1;P1;durP2;ratioP2;P2;SDS_P1;SDS_P2;PMS_P1;PMS_P2;Temp;Humidity;BMP_temperature;BMP_pressure;BME280_temperature;BME280_humidity;BME280_pressure;Samples;Min_cycle;Max_cycle;Signal;HPM_P1;HPM_P2
2023/09/27 00:00:36;;;;;;;8.77;4.88;;;16.30;99.90;;;;;;4993231;28;20536;-73
2023/09/27 00:03:03;;;;;;;8.07;4.72;;;16.30;99.90;;;;;;4995680;28;20030;-72
2023/09/27 00:05:29;;;;;;;9.23;4.60;;;16.40;99.90;;;;;;4999760;28;20030;-72
2023/09/27 00:07:56;;;;;;;8.68;4.78;;;16.40;99.90;;;;;;4998644;28;20073;-74
2023/09/27 00:10:22;;;;;;;8.15;4.78;;;16.40;99.90;;;;;;4989127;28;20042;-73
2023/09/27 00:12:48;;;;;;;7.57;5.10;;;16.40;99.90;;;;;;4998014;28;22500;-73
2023/09/27 00:15:14;;;;;;;11.50;4.80;;;16.30;99.90;;;;;;5004331;28;20018;-73
2023/09/27 00:17:41;;;;;;;10.10;4.97;;;16.00;99.90;;;;;;4989275;28;20073;-73
2023/09/27 00:20:11;;;;;;;9.30;5.13;;;15.90;99.90;;;;;;4991418;28;20033;-73
2023/09/27 00:22:37;;;;;;;12.73;4.88;;;15.90;99.90;;;;;;4991488;28;20480;-73
2023/09/27 00:25:04;;;;;;;8.38;4.70;;;16.00;99.90;;;;;;4991598;28;20038;-73
2023/09/27 00:27:31;;;;;;;8.98;5.28;;;16.00;99.90;;;;;;4996130;28;20437;-73
2023/09/27 00:29:57;;;;;;;9.65;5.10;;;16.00;99.90;;;;;;4993522;28;20038;-73
2023/09/27 00:32:23;;;;;;;9.48;4.93;;;16.00;99.90;;;;;;4994468;28;20030;-72
2023/09/27 00:34:49;;;;;;;11.45;5.13;;;16.10;99.90;;;;;;4997807;28;20030;-72
2023/09/27 00:37:15;;;;;;;7.97;4.38;;;16.20;99.90;;;;;;4994454;28;20054;-72
2023/09/27 00:39:41;;;;;;;9.23;5.35;;;16.10;99.90;;;;;;4999370;28;20030;-72
2023/09/27 00:42:07;;;;;;;8.02;4.72;;;16.10;99.90;;;;;;4998434;28;20026;-72
2023/09/27 00:44:33;;;;;;;7.97;4.60;;;16.10;99.90;;;;;;5003143;28;20088;-72
2023/09/27 00:46:58;;;;;;;10.57;5.22;;;16.10;99.90;;;;;;5003827;28;20037;-72
2023/09/27 00:49:25;;;;;;;9.43;5.05;;;16.00;99.90;;;;;;4992165;28;20036;-72
2023/09/27 00:51:51;;;;;;;12.52;5.07;;;16.10;99.90;;;;;;5001027;28;20034;-72
2023/09/27 00:54:17;;;;;;;9.10;5.07;;;16.10;99.90;;;;;;4999092;28;20034;-72
2023/09/27 00:56:45;;;;;;;9.00;5.10;;;16.20;99.90;;;;;;5004817;28;20021;-72
2023/09/27 00:59:11;;;;;;;7.45;4.43;;;16.20;99.90;;;;;;5005040;28;20057;-72
2023/09/27 01:01:38;;;;;;;7.18;4.50;;;16.20;99.90;;;;;;4999136;28;20109;-72
2023/09/27 01:04:05;;;;;;;7.93;4.03;;;16.20;99.90;;;;;;4998883;28;20042;-72
2023/09/27 01:06:32;;;;;;;8.60;4.22;;;16.30;99.90;;;;;;5003830;28;20167;-72
2023/09/27 01:08:58;;;;;;;8.38;4.35;;;16.30;99.90;;;;;;5000848;28;20647;-72
2023/09/27 01:11:24;;;;;;;9.23;4.43;;;16.20;99.90;;;;;;5002583;28;20096;-72
2023/09/27 01:13:50;;;;;;;7.55;4.85;;;16.10;99.90;;;;;;4999802;28;20026;-72
2023/09/27 01:16:16;;;;;;;6.57;4.43;;;16.00;99.90;;;;;;4995797;28;20033;-73
2023/09/27 01:18:42;;;;;;;9.60;4.57;;;16.10;99.90;;;;;;4998560;28;20044;-73
2023/09/27 01:21:07;;;;;;;8.90;4.95;;;15.90;99.90;;;;;;4992509;28;20037;-72
2023/09/27 01:23:35;;;;;;;9.38;4.03;;;15.90;99.90;;;;;;4997912;28;20117;-73
2023/09/27 01:26:02;;;;;;;10.30;4.70;;;16.10;99.90;;;;;;4998739;28;20026;-73
2023/09/27 01:28:29;;;;;;;8.13;4.78;;;16.10;99.90;;;;;;4997650;28;20026;-72
2023/09/27 01:30:55;;;;;;;8.20;4.55;;;15.80;99.90;;;;;;5002314;28;20396;-72
2023/09/27 01:33:21;;;;;;;10.80;4.97;;;15.60;99.90;;;;;;4998199;28;20128;-72
2023/09/27 01:35:46;;;;;;;10.15;4.72;;;15.70;99.90;;;;;;4997726;28;20065;-72
2023/09/27 01:38:13;;;;;;;8.95;4.45;;;15.60;99.90;;;;;;4999544;28;20480;-72
2023/09/27 01:40:40;;;;;;;6.88;4.63;;;15.70;99.90;;;;;;4991465;28;20106;-72
2023/09/27 01:43:07;;;;;;;7.78;4.55;;;15.60;99.90;;;;;;4997722;28;20057;-72
2023/09/27 01:45:33;;;;;;;12.38;5.03;;;15.50;99.90;;;;;;4998311;28;20096;-72
2023/09/27 01:48:00;;;;;;;11.82;4.65;;;15.50;99.90;;;;;;4999180;28;20499;-72
2023/09/27 01:50:27;;;;;;;9.95;4.70;;;15.40;99.90;;;;;;4993002;28;20032;-72
2023/09/27 01:52:54;;;;;;;11.20;5.13;;;15.40;99.90;;;;;;4998739;28;20037;-72
2023/09/27 01:55:20;;;;;;;7.53;4.70;;;15.50;99.90;;;;;;4997605;28;20025;-72
2023/09/27 01:57:46;;;;;;;10.63;5.20;;;15.50;99.90;;;;;;5000611;28;20115;-72
2023/09/27 02:00:17;;;;;;;9.30;5.03;;;15.70;99.90;;;;;;5001061;28;20636;-71
2023/09/27 02:03:00;;;;;;;8.68;4.80;;;15.60;99.90;;;;;;5002566;28;20475;-72
2023/09/27 02:05:28;;;;;;;10.38;4.90;;;15.60;99.90;;;;;;4999307;28;20065;-71
2023/09/27 02:07:54;;;;;;;8.18;4.05;;;15.70;99.90;;;;;;4995612;28;20033;-72
2023/09/27 02:10:20;;;;;;;8.77;4.35;;;15.70;99.90;;;;;;5002420;28;20026;-71
2023/09/27 02:12:46;;;;;;;9.52;5.10;;;15.80;99.90;;;;;;4993061;28;20033;-71
2023/09/27 02:15:13;;;;;;;9.38;4.25;;;15.80;99.90;;;;;;4990959;28;20038;-71
2023/09/27 02:17:40;;;;;;;7.63;4.53;;;15.60;99.90;;;;;;5005215;28;20026;-73
2023/09/27 02:20:07;;;;;;;7.07;4.55;;;15.60;99.90;;;;;;4998638;28;20022;-71
2023/09/27 02:22:40;;;;;;;10.50;4.78;;;15.50;99.90;;;;;;4990155;28;20064;-72
2023/09/27 02:25:09;;;;;;;6.55;4.10;;;15.60;99.90;;;;;;4993587;28;20042;-71
2023/09/27 02:27:39;;;;;;;8.95;4.97;;;15.50;99.90;;;;;;4990862;28;20030;-71
2023/09/27 02:30:07;;;;;;;10.35;4.53;;;15.60;99.90;;;;;;5001423;28;20435;-71
2023/09/27 02:32:33;;;;;;;8.88;4.45;;;15.50;99.90;;;;;;4991220;28;20495;-72
2023/09/27 02:34:59;;;;;;;9.63;4.25;;;15.50;99.90;;;;;;4990466;28;20030;-72
2023/09/27 02:37:25;;;;;;;8.55;4.63;;;15.40;99.90;;;;;;4998200;28;20116;-71
2023/09/27 02:39:51;;;;;;;8.43;5.05;;;15.30;99.90;;;;;;4996066;28;20727;-72
2023/09/27 02:42:17;;;;;;;8.85;5.30;;;15.30;99.90;;;;;;4989312;28;20023;-71
2023/09/27 02:44:43;;;;;;;10.93;4.68;;;15.40;99.90;;;;;;4995442;28;20038;-72
2023/09/27 02:47:09;;;;;;;8.32;4.32;;;15.40;99.90;;;;;;4997395;28;20435;-71
2023/09/27 02:49:35;;;;;;;8.65;5.30;;;15.40;99.90;;;;;;4990462;28;20113;-71
2023/09/27 02:52:01;;;;;;;12.85;5.32;;;15.60;99.90;;;;;;4996568;28;20113;-72
2023/09/27 02:54:27;;;;;;;13.73;5.63;;;15.70;99.90;;;;;;4997550;28;20388;-72
2023/09/27 02:56:53;;;;;;;10.25;5.18;;;15.60;99.90;;;;;;4990309;28;20037;-71
2023/09/27 02:59:19;;;;;;;12.80;5.38;;;15.60;99.90;;;;;;4989103;28;20042;-72
2023/09/27 03:01:45;;;;;;;9.48;5.30;;;15.60;99.90;;;;;;4990911;28;20030;-72
2023/09/27 03:04:11;;;;;;;8.52;4.90;;;15.50;99.90;;;;;;4991458;28;20056;-72
2023/09/27 03:06:41;;;;;;;7.97;4.70;;;15.50;99.90;;;;;;4989244;28;20032;-71
2023/09/27 03:09:11;;;;;;;9.20;4.35;;;15.40;99.90;;;;;;4986714;28;20053;-71
2023/09/27 03:11:39;;;;;;;7.82;4.97;;;15.40;99.90;;;;;;4984262;28;20409;-72
2023/09/27 03:14:05;;;;;;;7.13;5.03;;;15.20;99.90;;;;;;4985509;28;20515;-71
2023/09/27 03:16:30;;;;;;;7.50;4.40;;;15.20;99.90;;;;;;4983482;28;20124;-71
2023/09/27 03:18:58;;;;;;;10.48;4.95;;;15.30;99.90;;;;;;4992490;28;20037;-72
2023/09/27 03:21:25;;;;;;;8.98;5.18;;;15.20;99.90;;;;;;4982304;28;20030;-72
2023/09/27 03:23:53;;;;;;;10.52;4.57;;;15.20;99.90;;;;;;4999728;28;20454;-71
2023/09/27 03:26:19;;;;;;;9.68;4.38;;;15.20;99.90;;;;;;4990401;28;20025;-72
2023/09/27 03:28:45;;;;;;;8.95;4.38;;;15.20;99.90;;;;;;4995908;28;20025;-72
2023/09/27 03:31:11;;;;;;;9.20;5.35;;;15.20;99.90;;;;;;4992982;28;20599;-72
2023/09/27 03:33:36;;;;;;;9.23;4.82;;;15.30;99.90;;;;;;4987094;28;20062;-71
2023/09/27 03:36:03;;;;;;;9.05;4.45;;;15.30;99.90;;;;;;4991249;28;20031;-71
2023/09/27 03:38:29;;;;;;;8.50;5.10;;;15.30;99.90;;;;;;4984751;28;20076;-71
2023/09/27 03:40:55;;;;;;;11.32;5.63;;;15.40;99.90;;;;;;4984476;28;20110;-73
2023/09/27 03:43:20;;;;;;;11.98;4.60;;;15.50;99.90;;;;;;4995254;28;20124;-71
2023/09/27 03:45:46;;;;;;;8.90;5.93;;;15.50;99.90;;;;;;4987344;28;20041;-72
2023/09/27 03:48:12;;;;;;;8.88;4.97;;;15.50;99.90;;;;;;4983577;28;20034;-71
2023/09/27 03:50:38;;;;;;;9.32;4.93;;;15.50;99.90;;;;;;4984317;28;20037;-72
2023/09/27 03:53:04;;;;;;;10.10;5.65;;;15.50;99.90;;;;;;4984146;28;20034;-71
2023/09/27 03:55:30;;;;;;;8.13;5.22;;;15.30;99.90;;;;;;4986376;28;20030;-72
2023/09/27 03:57:55;;;;;;;9.25;4.80;;;15.30;99.90;;;;;;4982309;28;20104;-71
2023/09/27 04:00:21;;;;;;;9.15;4.78;;;15.20;99.90;;;;;;4985177;28;20120;-71
2023/09/27 04:02:47;;;;;;;9.73;6.18;;;15.20;99.90;;;;;;4990405;28;20487;-72
2023/09/27 04:05:15;;;;;;;11.95;5.45;;;15.20;99.90;;;;;;4988456;28;20523;-71
2023/09/27 04:07:41;;;;;;;8.70;4.88;;;15.10;99.90;;;;;;4995889;28;20030;-72
2023/09/27 04:10:07;;;;;;;9.07;5.28;;;15.10;99.90;;;;;;4988574;28;20037;-71
2023/09/27 04:12:34;;;;;;;8.40;5.47;;;15.00;99.90;;;;;;4982099;28;20382;-71
2023/09/27 04:15:00;;;;;;;11.07;4.85;;;15.10;99.90;;;;;;4981574;28;20812;-71
2023/09/27 04:17:26;;;;;;;10.65;5.65;;;15.20;99.90;;;;;;4982227;28;20109;-72
2023/09/27 04:19:53;;;;;;;10.10;4.93;;;15.40;99.90;;;;;;4990913;28;20501;-73
2023/09/27 04:22:19;;;;;;;10.55;5.00;;;15.60;99.90;;;;;;4999766;28;20064;-73
2023/09/27 04:24:44;;;;;;;7.47;4.50;;;15.60;99.90;;;;;;4991215;28;20089;-73
2023/09/27 04:27:10;;;;;;;8.13;4.78;;;15.70;99.90;;;;;;4998988;28;20029;-73
2023/09/27 04:29:36;;;;;;;7.28;4.70;;;15.80;99.90;;;;;;4986963;28;20030;-73
2023/09/27 04:32:01;;;;;;;9.18;4.78;;;16.00;99.90;;;;;;4991815;28;20073;-73
2023/09/27 04:34:28;;;;;;;10.02;5.15;;;15.90;99.90;;;;;;4994325;28;20045;-72
2023/09/27 04:36:54;;;;;;;7.18;4.55;;;16.00;99.90;;;;;;4997778;28;20208;-72
2023/09/27 04:39:20;;;;;;;7.40;5.22;;;16.00;99.90;;;;;;4989938;28;20113;-72
2023/09/27 04:41:46;;;;;;;9.38;4.65;;;16.00;99.90;;;;;;4986409;28;20105;-73
2023/09/27 04:44:16;;;;;;;10.10;5.25;;;16.00;99.90;;;;;;4992857;28;20417;-73
2023/09/27 04:46:41;;;;;;;8.90;4.93;;;16.10;99.90;;;;;;4989206;28;20034;-72
2023/09/27 04:49:07;;;;;;;10.68;4.95;;;16.00;99.90;;;;;;4983964;28;20503;-73
2023/09/27 04:51:33;;;;;;;8.32;5.65;;;16.00;99.90;;;;;;4985820;28;20792;-72
2023/09/27 04:54:02;;;;;;;8.32;4.50;;;15.90;99.90;;;;;;4986142;28;20030;-72
2023/09/27 04:56:31;;;;;;;7.07;4.78;;;15.90;99.90;;;;;;4989817;28;20117;-73
2023/09/27 04:58:58;;;;;;;6.68;4.55;;;15.80;99.90;;;;;;4991271;28;20058;-72
2023/09/27 05:01:25;;;;;;;9.73;5.53;;;15.80;99.90;;;;;;4984139;28;20485;-72
2023/09/27 05:03:51;;;;;;;9.32;5.00;;;15.90;99.90;;;;;;4984340;28;20046;-72
2023/09/27 05:06:16;;;;;;;7.85;4.93;;;15.80;99.90;;;;;;4989305;28;20045;-73
2023/09/27 05:08:42;;;;;;;7.97;4.78;;;15.80;99.90;;;;;;4988669;28;20090;-72
2023/09/27 05:11:08;;;;;;;10.00;5.55;;;15.80;99.90;;;;;;4985481;28;20035;-72
2023/09/27 05:13:33;;;;;;;11.30;4.90;;;15.90;99.90;;;;;;4992291;28;20041;-72
2023/09/27 05:15:59;;;;;;;6.93;4.97;;;15.90;99.90;;;;;;4990144;28;20030;-72
2023/09/27 05:18:25;;;;;;;8.15;4.85;;;15.90;99.90;;;;;;4985376;28;20457;-73
2023/09/27 05:20:51;;;;;;;8.63;5.18;;;15.90;99.90;;;;;;4985116;28;20034;-73
2023/09/27 05:23:17;;;;;;;12.30;5.07;;;15.80;99.90;;;;;;4995564;28;20912;-72
2023/09/27 05:25:43;;;;;;;8.95;5.30;;;15.70;99.90;;;;;;4995801;28;20026;-73
2023/09/27 05:28:09;;;;;;;10.07;5.50;;;15.70;99.90;;;;;;4988242;28;20037;-73
2023/09/27 05:30:34;;;;;;;9.13;5.13;;;15.70;99.90;;;;;;4996792;28;20112;-73
2023/09/27 05:33:00;;;;;;;9.75;6.15;;;15.70;99.90;;;;;;4984176;28;20058;-72
2023/09/27 05:35:26;;;;;;;8.68;4.60;;;15.80;99.90;;;;;;4992665;28;20041;-72
2023/09/27 05:37:52;;;;;;;10.80;5.43;;;15.80;99.90;;;;;;4990627;28;20850;-72
2023/09/27 05:40:18;;;;;;;12.10;5.32;;;15.60;99.90;;;;;;4984490;28;20015;-73
2023/09/27 05:42:44;;;;;;;13.10;5.63;;;15.50;99.90;;;;;;4984278;28;20053;-73
2023/09/27 05:45:13;;;;;;;10.43;4.78;;;15.60;99.90;;;;;;4984505;28;20094;-72
2023/09/27 05:47:39;;;;;;;7.75;5.20;;;15.70;99.90;;;;;;4991166;28;20022;-72
2023/09/27 05:50:08;;;;;;;9.02;5.32;;;15.80;99.90;;;;;;4990941;28;20601;-73
2023/09/27 05:52:37;;;;;;;12.55;6.32;;;15.70;99.90;;;;;;4987524;28;20416;-73
2023/09/27 05:55:07;;;;;;;10.75;5.30;;;15.70;99.90;;;;;;4989913;28;20026;-73
2023/09/27 05:57:33;;;;;;;8.15;5.22;;;15.60;99.90;;;;;;4992987;28;20161;-73
2023/09/27 05:59:59;;;;;;;8.93;4.57;;;15.60;99.90;;;;;;4975557;28;20117;-74
2023/09/27 06:02:30;;;;;;;7.72;4.70;;;15.70;99.90;;;;;;4985954;28;20956;-73
2023/09/27 06:04:57;;;;;;;14.82;6.28;;;15.80;99.90;;;;;;4983854;28;20073;-74
2023/09/27 06:07:23;;;;;;;8.85;5.43;;;15.70;99.90;;;;;;4989384;28;20026;-73
2023/09/27 06:09:49;;;;;;;10.27;5.15;;;15.70;99.90;;;;;;4987923;28;20046;-73
2023/09/27 06:12:15;;;;;;;9.95;5.35;;;15.70;99.90;;;;;;4984945;28;20061;-72
2023/09/27 06:14:42;;;;;;;10.45;5.57;;;15.60;99.90;;;;;;4986984;28;20035;-73
2023/09/27 06:17:08;;;;;;;8.55;5.70;;;15.60;99.90;;;;;;4984537;28;20087;-73
2023/09/27 06:19:33;;;;;;;9.35;5.43;;;15.60;99.90;;;;;;4983602;28;20026;-73
2023/09/27 06:21:59;;;;;;;7.70;4.65;;;15.80;99.90;;;;;;4985117;28;20030;-72
2023/09/27 06:24:28;;;;;;;7.72;4.47;;;16.00;99.90;;;;;;4984517;28;20111;-73
2023/09/27 06:26:54;;;;;;;8.73;4.20;;;16.20;99.90;;;;;;4982649;28;20026;-72
2023/09/27 06:29:20;;;;;;;7.82;4.32;;;16.10;99.90;;;;;;4993095;28;20082;-73
2023/09/27 06:31:47;;;;;;;10.80;5.10;;;16.20;99.90;;;;;;4994387;28;20030;-72
2023/09/27 06:34:16;;;;;;;7.78;4.35;;;16.20;99.90;;;;;;4989515;28;20030;-73
2023/09/27 06:36:48;;;;;;;10.70;5.15;;;16.30;99.90;;;;;;4991856;28;20109;-73
2023/09/27 06:39:16;;;;;;;8.02;4.68;;;16.30;99.90;;;;;;4988299;28;20101;-71
2023/09/27 06:41:44;;;;;;;8.10;5.15;;;16.20;99.90;;;;;;4982135;28;20093;-71
2023/09/27 06:44:12;;;;;;;9.68;5.45;;;16.20;99.90;;;;;;4982122;28;20122;-73
2023/09/27 06:46:38;;;;;;;14.68;6.13;;;15.90;99.90;;;;;;4986503;28;20387;-74
2023/09/27 06:49:04;;;;;;;9.13;5.60;;;15.90;99.90;;;;;;4985834;28;20634;-73
2023/09/27 06:51:30;;;;;;;9.85;5.65;;;15.80;99.90;;;;;;4987259;28;20050;-72
2023/09/27 06:53:56;;;;;;;10.00;6.00;;;15.70;99.90;;;;;;4991790;28;20037;-72
2023/09/27 06:56:22;;;;;;;10.18;5.28;;;15.60;99.90;;;;;;4983357;28;20035;-73
2023/09/27 06:58:49;;;;;;;8.98;5.90;;;15.70;99.90;;;;;;4984329;28;20050;-73
2023/09/27 07:01:15;;;;;;;12.20;5.78;;;15.70;99.90;;;;;;4991640;28;20041;-73
2023/09/27 07:03:41;;;;;;;10.52;4.97;;;15.50;99.90;;;;;;4984895;28;20034;-73
2023/09/27 07:06:06;;;;;;;9.45;5.45;;;15.80;99.90;;;;;;4990008;28;20841;-73
2023/09/27 07:08:33;;;;;;;11.40;5.20;;;16.00;99.90;;;;;;4994463;28;20141;-73
2023/09/27 07:11:09;;;;;;;15.43;5.63;;;16.10;99.90;;;;;;4987365;28;20028;-73
2023/09/27 07:13:37;;;;;;;12.43;4.75;;;16.10;99.90;;;;;;4987263;28;20117;-73
2023/09/27 07:16:17;;;;;;;9.23;5.32;;;16.10;99.90;;;;;;4984420;28;20030;-73
2023/09/27 07:18:43;;;;;;;10.27;5.15;;;16.10;99.90;;;;;;4982570;28;20030;-75
2023/09/27 07:21:10;;;;;;;12.13;6.25;;;16.10;99.90;;;;;;4981982;28;20027;-73
2023/09/27 07:23:35;;;;;;;8.18;5.10;;;16.10;99.90;;;;;;4987545;28;20068;-73
2023/09/27 07:26:05;;;;;;;8.32;5.50;;;16.00;99.90;;;;;;4986473;28;20065;-72
2023/09/27 07:28:31;;;;;;;9.98;5.55;;;16.10;99.90;;;;;;4988103;28;20034;-72
2023/09/27 07:30:58;;;;;;;9.63;5.75;;;16.10;99.90;;;;;;4982676;28;20034;-72
2023/09/27 07:33:26;;;;;;;10.60;5.13;;;16.10;99.90;;;;;;4985498;28;20026;-74
2023/09/27 07:35:52;;;;;;;11.43;5.25;;;16.10;99.90;;;;;;4987414;28;20037;-73
2023/09/27 07:38:18;;;;;;;9.07;4.85;;;16.20;99.90;;;;;;4984708;28;20026;-72
2023/09/27 07:40:48;;;;;;;10.70;5.80;;;16.20;99.90;;;;;;4985692;28;20500;-72
2023/09/27 07:43:15;;;;;;;7.18;4.93;;;16.20;99.90;;;;;;4981389;28;20034;-73
2023/09/27 07:45:43;;;;;;;8.90;5.13;;;16.30;99.90;;;;;;4991417;28;20062;-72
2023/09/27 07:48:09;;;;;;;9.60;5.28;;;16.30;99.90;;;;;;4985089;28;20557;-73
2023/09/27 07:50:37;;;;;;;12.77;5.38;;;16.40;99.90;;;;;;4992675;28;20629;-73
2023/09/27 07:53:06;;;;;;;10.90;5.30;;;16.40;99.90;;;;;;4985142;28;20030;-73
2023/09/27 07:55:32;;;;;;;6.25;4.30;;;16.40;99.90;;;;;;4984657;28;20677;-72
2023/09/27 07:57:58;;;;;;;9.70;5.20;;;16.40;99.90;;;;;;4985781;28;20038;-73
2023/09/27 08:00:29;;;;;;;8.75;5.15;;;16.50;99.90;;;;;;4987885;28;20053;-73
2023/09/27 08:02:57;;;;;;;14.02;6.20;;;16.50;99.90;;;;;;4980985;28;20023;-73
2023/09/27 08:05:23;;;;;;;13.48;5.03;;;16.60;99.90;;;;;;4982775;28;20249;-73
2023/09/27 08:07:50;;;;;;;7.47;4.85;;;16.60;99.90;;;;;;4987388;28;20061;-73
2023/09/27 08:10:17;;;;;;;8.05;5.03;;;16.70;99.90;;;;;;4992142;28;20084;-73
2023/09/27 08:12:43;;;;;;;9.57;4.93;;;16.70;99.90;;;;;;4987907;28;20771;-72
2023/09/27 08:15:10;;;;;;;9.77;5.15;;;16.80;99.90;;;;;;4994376;28;20137;-73
2023/09/27 08:17:36;;;;;;;9.10;5.10;;;16.80;99.90;;;;;;4988521;28;20031;-73
2023/09/27 08:20:07;;;;;;;8.52;4.63;;;16.80;99.90;;;;;;4991050;28;20432;-72
2023/09/27 08:22:34;;;;;;;8.40;5.10;;;16.90;99.90;;;;;;4976929;28;20596;-72
2023/09/27 08:25:00;;;;;;;12.05;4.30;;;17.00;99.90;;;;;;4981559;28;20042;-73
2023/09/27 08:27:26;;;;;;;13.38;5.05;;;16.90;99.90;;;;;;4984276;28;20033;-73
2023/09/27 08:29:53;;;;;;;11.82;5.07;;;17.00;99.90;;;;;;4989293;28;20042;-73
2023/09/27 08:32:18;;;;;;;10.68;5.60;;;17.10;99.90;;;;;;4994625;28;20133;-73
2023/09/27 08:34:46;;;;;;;8.68;4.95;;;17.10;99.90;;;;;;4983415;28;20514;-72
2023/09/27 08:37:12;;;;;;;8.95;4.45;;;17.30;99.90;;;;;;4989809;28;20121;-72
2023/09/27 08:39:41;;;;;;;10.25;5.55;;;17.30;99.90;;;;;;4993252;28;20599;-73
2023/09/27 08:42:06;;;;;;;9.48;5.35;;;17.40;99.90;;;;;;4992862;28;20034;-72
2023/09/27 08:44:34;;;;;;;8.20;4.93;;;17.50;99.90;;;;;;4980258;28;20064;-72
2023/09/27 08:47:00;;;;;;;8.73;5.32;;;17.60;99.90;;;;;;4983399;28;20030;-74
2023/09/27 08:49:26;;;;;;;9.15;4.93;;;17.70;99.90;;;;;;4981479;28;20677;-73
2023/09/27 08:51:53;;;;;;;8.32;5.03;;;17.60;99.90;;;;;;4987213;28;20042;-75
2023/09/27 08:54:21;;;;;;;10.85;5.63;;;17.70;99.90;;;;;;4988994;28;20026;-73
2023/09/27 08:56:50;;;;;;;8.40;5.18;;;17.70;99.90;;;;;;4986597;28;20038;-73
2023/09/27 08:59:18;;;;;;;9.48;4.70;;;17.70;99.90;;;;;;4987690;28;20050;-73
2023/09/27 09:01:45;;;;;;;9.85;5.65;;;17.80;99.90;;;;;;4991120;28;20057;-73
2023/09/27 09:04:11;;;;;;;12.30;5.80;;;17.90;99.90;;;;;;4981010;28;20045;-73
2023/09/27 09:06:38;;;;;;;10.25;5.80;;;17.90;99.90;;;;;;4991272;28;20388;-73
2023/09/27 09:09:11;;;;;;;12.52;5.22;;;18.10;99.90;;;;;;4983709;28;20054;-73
2023/09/27 09:11:48;;;;;;;9.45;5.57;;;18.20;99.90;;;;;;4983678;28;20402;-74
2023/09/27 09:14:21;;;;;;;9.93;5.60;;;18.40;99.90;;;;;;4986039;28;20032;-73
2023/09/27 09:16:54;;;;;;;10.27;6.40;;;18.40;99.90;;;;;;4984916;28;20117;-74
2023/09/27 09:19:24;;;;;;;11.77;6.13;;;18.50;99.90;;;;;;4991350;28;20281;-73
2023/09/27 09:22:09;;;;;;;8.65;5.47;;;18.80;99.90;;;;;;4984879;28;20037;-73
2023/09/27 09:24:43;;;;;;;9.55;5.22;;;19.10;99.90;;;;;;4984967;28;20041;-73
2023/09/27 09:27:14;;;;;;;11.80;4.97;;;19.20;99.90;;;;;;4994653;28;20031;-72
2023/09/27 09:29:46;;;;;;;9.05;4.32;;;19.30;99.90;;;;;;4991180;28;20037;-72
2023/09/27 09:32:20;;;;;;;9.20;4.57;;;19.40;99.90;;;;;;4984101;28;20030;-74
2023/09/27 09:34:48;;;;;;;10.80;4.85;;;19.30;99.90;;;;;;4984505;28;20062;-71
2023/09/27 09:37:28;;;;;;;8.85;5.25;;;19.50;99.90;;;;;;4990573;28;20026;-71
2023/09/27 09:40:14;;;;;;;7.78;5.05;;;19.60;99.90;;;;;;4990548;28;20060;-72
2023/09/27 09:42:42;;;;;;;11.32;5.03;;;19.60;99.90;;;;;;4986791;28;20037;-71
2023/09/27 09:45:12;;;;;;;11.65;4.90;;;19.60;99.90;;;;;;4994981;28;20037;-73
2023/09/27 09:47:44;;;;;;;10.25;5.22;;;19.50;99.90;;;;;;4985468;28;20034;-73
2023/09/27 09:50:18;;;;;;;11.13;5.07;;;19.70;99.90;;;;;;4991389;28;20039;-73
2023/09/27 09:52:53;;;;;;;10.23;5.00;;;19.80;99.90;;;;;;4992575;28;20802;-72
2023/09/27 09:55:23;;;;;;;9.88;5.47;;;19.90;99.90;;;;;;4984070;28;20042;-73
2023/09/27 09:58:10;;;;;;;11.20;4.60;;;19.90;99.90;;;;;;4990785;28;20057;-73
2023/09/27 10:00:42;;;;;;;9.80;4.63;;;20.00;99.90;;;;;;4991894;28;20027;-73
2023/09/27 10:03:15;;;;;;;13.75;4.75;;;20.00;99.90;;;;;;4992195;28;20048;-73
2023/09/27 10:05:42;;;;;;;12.52;5.13;;;19.90;99.90;;;;;;4989721;28;20500;-72
2023/09/27 10:08:08;;;;;;;8.65;4.93;;;19.90;99.90;;;;;;4989877;28;20183;-73
2023/09/27 10:10:36;;;;;;;9.50;5.03;;;20.30;99.90;;;;;;4992086;28;20038;-72
2023/09/27 10:13:05;;;;;;;10.43;5.03;;;20.30;99.90;;;;;;4995062;28;20030;-73
2023/09/27 10:15:34;;;;;;;8.30;4.53;;;20.40;99.90;;;;;;4983450;28;20041;-71
2023/09/27 10:18:21;;;;;;;8.55;4.65;;;20.40;99.90;;;;;;4987350;28;20084;-73
2023/09/27 10:21:02;;;;;;;9.48;4.75;;;20.40;99.90;;;;;;4994658;28;20030;-72
2023/09/27 10:23:46;;;;;;;10.13;4.65;;;20.40;99.90;;;;;;4986791;28;20137;-73
2023/09/27 10:26:33;;;;;;;8.77;4.80;;;20.50;99.90;;;;;;4990390;28;20027;-73
2023/09/27 10:29:06;;;;;;;11.90;5.53;;;20.70;99.90;;;;;;4982597;28;20397;-73
2023/09/27 10:31:36;;;;;;;12.25;5.32;;;20.70;99.90;;;;;;4988958;28;20412;-73
2023/09/27 10:34:02;;;;;;;11.88;5.20;;;20.80;99.90;;;;;;4997467;28;20042;-71
2023/09/27 10:36:29;;;;;;;8.05;4.53;;;20.80;99.90;;;;;;4987465;28;20087;-73
2023/09/27 10:38:55;;;;;;;8.88;4.65;;;20.90;99.90;;;;;;4987300;28;20048;-72
2023/09/27 10:41:33;;;;;;;9.98;4.70;;;20.90;99.90;;;;;;4993884;28;25752;-73
2023/09/27 10:44:02;;;;;;;6.72;4.60;;;21.50;99.90;;;;;;4983520;28;20085;-73
2023/09/27 10:46:43;;;;;;;8.48;4.65;;;21.60;99.90;;;;;;4990700;28;20128;-73
2023/09/27 10:49:09;;;;;;;10.85;4.60;;;21.60;99.90;;;;;;4993935;28;20037;-72
2023/09/27 10:51:35;;;;;;;12.18;6.10;;;21.80;99.90;;;;;;4993089;28;20560;-73
2023/09/27 10:54:09;;;;;;;8.25;5.10;;;21.70;99.90;;;;;;4989977;28;20070;-73
2023/09/27 10:56:39;;;;;;;8.48;4.53;;;21.60;99.90;;;;;;4988973;28;20116;-73
2023/09/27 10:59:04;;;;;;;9.85;4.60;;;21.70;99.90;;;;;;4983623;28;20049;-73
2023/09/27 11:01:31;;;;;;;10.95;5.63;;;21.70;99.90;;;;;;4983055;28;20484;-73
2023/09/27 11:04:01;;;;;;;12.38;5.13;;;21.90;99.90;;;;;;4981201;28;20042;-73
2023/09/27 11:06:28;;;;;;;9.80;4.60;;;21.90;99.90;;;;;;4988655;28;20176;-72
2023/09/27 11:09:12;;;;;;;10.90;4.88;;;22.00;99.90;;;;;;4984063;28;20045;-72
2023/09/27 11:11:38;;;;;;;9.07;4.88;;;22.20;99.90;;;;;;4982499;28;20029;-74
2023/09/27 11:14:04;;;;;;;9.45;4.72;;;22.50;99.90;;;;;;4990203;28;20492;-72
2023/09/27 11:16:30;;;;;;;12.75;5.45;;;22.70;99.90;;;;;;4988743;28;20106;-73
2023/09/27 11:18:56;;;;;;;10.18;5.63;;;22.60;99.90;;;;;;4973455;28;20133;-72
2023/09/27 11:21:29;;;;;;;9.57;5.32;;;22.50;99.90;;;;;;4993902;28;20113;-72
2023/09/27 11:24:02;;;;;;;9.52;5.22;;;22.30;99.90;;;;;;4988002;28;20030;-72
2023/09/27 11:26:31;;;;;;;10.88;5.00;;;22.50;99.90;;;;;;4986826;28;20026;-72
2023/09/27 11:29:07;;;;;;;10.82;4.78;;;22.80;99.90;;;;;;4992374;28;20026;-72
2023/09/27 11:31:37;;;;;;;8.98;5.18;;;22.90;99.90;;;;;;4999513;28;20026;-74
2023/09/27 11:34:19;;;;;;;9.65;4.55;;;23.00;99.90;;;;;;4995397;28;20480;-72
2023/09/27 11:36:46;;;;;;;8.32;4.82;;;22.80;99.90;;;;;;4986637;28;20037;-71
2023/09/27 11:39:15;;;;;;;10.57;5.43;;;22.90;99.90;;;;;;4991836;28;20026;-72
2023/09/27 11:41:43;;;;;;;11.93;4.93;;;23.10;99.90;;;;;;4998258;28;20037;-72
2023/09/27 11:44:26;;;;;;;14.75;5.30;;;23.20;99.90;;;;;;4994847;28;20037;-72
2023/09/27 11:47:06;;;;;;;7.03;4.07;;;23.40;99.90;;;;;;4994319;28;20026;-72
2023/09/27 11:49:33;;;;;;;10.23;6.03;;;23.30;99.90;;;;;;4990897;28;20640;-72
2023/09/27 11:52:09;;;;;;;11.38;5.22;;;23.40;99.90;;;;;;4970495;28;20030;-71
2023/09/27 11:54:41;;;;;;;11.93;5.07;;;23.50;99.90;;;;;;4989699;28;20160;-71
2023/09/27 11:57:07;;;;;;;11.27;5.35;;;23.50;99.90;;;;;;4986362;28;20069;-71
2023/09/27 11:59:33;;;;;;;12.20;5.45;;;23.60;99.90;;;;;;4989562;28;20053;-72
2023/09/27 12:01:59;;;;;;;11.20;4.88;;;23.70;99.90;;;;;;4984554;28;20033;-71
2023/09/27 12:04:24;;;;;;;11.02;4.90;;;23.70;99.90;;;;;;4990718;28;20034;-71
2023/09/27 12:06:50;;;;;;;8.20;5.10;;;23.50;99.90;;;;;;4987481;28;20080;-71
2023/09/27 12:09:16;;;;;;;10.35;5.20;;;23.70;99.90;;;;;;4986246;28;20033;-71
2023/09/27 12:11:41;;;;;;;11.15;5.35;;;23.80;99.90;;;;;;4983398;28;20108;-71
2023/09/27 12:14:07;;;;;;;10.43;4.55;;;23.70;99.90;;;;;;4992124;28;20034;-71
2023/09/27 12:16:33;;;;;;;8.48;4.38;;;23.70;99.90;;;;;;4986948;28;20040;-71
2023/09/27 12:18:59;;;;;;;10.45;4.80;;;23.90;99.90;;;;;;4984284;28;20026;-72
2023/09/27 12:21:24;;;;;;;11.15;5.15;;;23.90;99.90;;;;;;4985198;28;20040;-72
2023/09/27 12:23:50;;;;;;;8.07;4.50;;;24.00;99.90;;;;;;4988631;28;20043;-71
2023/09/27 12:26:16;;;;;;;10.90;5.30;;;24.00;99.90;;;;;;4986439;28;20026;-71
2023/09/27 12:28:42;;;;;;;10.10;4.88;;;24.00;99.90;;;;;;4991122;28;20384;-71
2023/09/27 12:31:08;;;;;;;7.60;4.30;;;24.10;99.90;;;;;;4984909;28;20070;-71
2023/09/27 12:33:35;;;;;;;9.20;4.47;;;24.20;99.90;;;;;;4993850;28;20599;-71
2023/09/27 12:36:01;;;;;;;7.93;3.88;;;24.20;99.90;;;;;;4984203;28;20034;-71
2023/09/27 12:38:27;;;;;;;8.98;4.63;;;23.80;99.20;;;;;;4990971;28;20030;-71
2023/09/27 12:40:53;;;;;;;9.52;5.43;;;24.00;99.50;;;;;;4987138;28;20031;-72
2023/09/27 12:43:19;;;;;;;8.82;4.28;;;24.10;99.90;;;;;;4988918;28;20030;-71
2023/09/27 12:45:45;;;;;;;11.43;5.30;;;24.20;99.60;;;;;;4993013;28;20147;-71